McCook Lake, South Dakota
Current Conditions -  °F | °C
As of 3:52 AM on Saturday 29 Nov 2014 (Local Time) from KSUX Reporting Station
Clear Clear  
Wind Chill: 20°   Ceiling: Unl
Heat Index: 28°   Visibility: 10mi
Dew Point: 25°   Wind: 8mph
Humidity: 88%   Direction: 110°ESE
Pressure: 29.5"   Gusts: NA
Location:  42.532°N, 96.5446°W
Report Text: KSUX 290952Z 11007KT 10SM CLR M02/M04 A2950 RMK AO2 SLP998 T10221039
Loading
Personal Weather Stations






























Interactive Weather Map New forecast layout! Learn more

10-Day Weather Forecast

Advertisements
Track Severe Weather on mobile